createdAt,value
2019-03-23T00:00:00.476Z,5.47
2019-03-23T00:02:29.012Z,5.17
2019-03-23T00:04:57.505Z,5.57
2019-03-23T00:07:26.080Z,5.50
2019-03-23T00:09:54.679Z,4.67
2019-03-23T00:12:23.256Z,4.40
2019-03-23T00:14:51.834Z,4.80
2019-03-23T00:17:20.404Z,5.67
2019-03-23T00:19:49.141Z,5.73
2019-03-23T00:22:17.770Z,5.43
2019-03-23T00:24:46.284Z,5.13
2019-03-23T00:27:14.936Z,5.10
2019-03-23T00:29:43.642Z,5.40
2019-03-23T00:32:12.264Z,4.80
2019-03-23T00:34:40.946Z,5.53
2019-03-23T00:37:09.603Z,5.47
2019-03-23T00:39:38.157Z,4.93
2019-03-23T00:42:06.725Z,5.40
2019-03-23T00:44:35.294Z,4.90
2019-03-23T00:47:03.944Z,4.83
2019-03-23T00:49:32.502Z,4.50
2019-03-23T00:52:01.130Z,4.80
2019-03-23T00:54:29.896Z,4.30
2019-03-23T00:56:58.372Z,4.70
2019-03-23T00:59:27.025Z,4.53
2019-03-23T01:01:55.624Z,5.33
2019-03-23T01:04:24.296Z,4.63
2019-03-23T01:06:52.933Z,4.70
2019-03-23T01:09:21.504Z,5.00
2019-03-23T01:11:50.062Z,4.57
2019-03-23T01:14:18.754Z,5.20
2019-03-23T01:16:47.226Z,5.07
2019-03-23T01:19:15.940Z,5.23
2019-03-23T01:21:44.650Z,5.33
2019-03-23T01:24:13.258Z,4.67
2019-03-23T01:26:41.875Z,5.70
2019-03-23T01:29:10.563Z,6.10
2019-03-23T01:31:39.291Z,4.90
2019-03-23T01:34:08.022Z,5.40
2019-03-23T01:36:36.630Z,5.00
2019-03-23T01:39:07.218Z,4.67
2019-03-23T01:41:35.763Z,5.17
2019-03-23T01:44:05.009Z,5.03
2019-03-23T01:46:33.730Z,5.00
2019-03-23T01:49:02.437Z,5.23
2019-03-23T01:51:30.991Z,4.50
2019-03-23T01:53:59.453Z,4.80
2019-03-23T01:56:28.021Z,4.83
2019-03-23T01:58:56.628Z,4.43
2019-03-23T02:01:25.134Z,4.37
2019-03-23T02:03:53.710Z,4.80
2019-03-23T02:06:22.295Z,4.63
2019-03-23T02:08:51.054Z,4.50
2019-03-23T02:11:19.666Z,4.63
2019-03-23T02:13:48.459Z,5.07
2019-03-23T02:16:16.966Z,4.93
2019-03-23T02:18:45.673Z,4.63
2019-03-23T02:21:14.145Z,4.60
2019-03-23T02:23:42.829Z,4.70
2019-03-23T02:26:11.490Z,5.20
2019-03-23T02:28:40.248Z,4.73
2019-03-23T02:31:09.204Z,5.43
2019-03-23T02:33:37.968Z,5.67
2019-03-23T02:36:06.645Z,6.00
2019-03-23T02:38:35.275Z,6.13
2019-03-23T02:41:03.952Z,6.03
2019-03-23T02:43:32.603Z,6.13
2019-03-23T02:46:01.595Z,6.10
2019-03-23T02:48:30.376Z,6.07
2019-03-23T02:50:59.015Z,6.60
2019-03-23T02:53:27.594Z,6.23
2019-03-23T02:55:56.204Z,6.47
2019-03-23T02:58:24.744Z,6.93
2019-03-23T03:00:53.332Z,5.10
2019-03-23T03:03:21.803Z,5.87
2019-03-23T03:05:50.251Z,5.30
2019-03-23T03:08:18.733Z,5.50
2019-03-23T03:10:47.574Z,4.93
2019-03-23T03:13:16.045Z,4.57
2019-03-23T03:15:44.566Z,4.80
2019-03-23T03:18:13.159Z,4.63
2019-03-23T03:20:41.693Z,5.67
2019-03-23T03:23:10.445Z,5.43
2019-03-23T03:25:39.036Z,5.47
2019-03-23T03:28:07.805Z,5.17
2019-03-23T03:30:36.493Z,5.20
2019-03-23T03:33:05.066Z,5.30
2019-03-23T03:35:33.729Z,5.73
2019-03-23T03:38:02.243Z,5.83
2019-03-23T03:40:30.712Z,6.07
2019-03-23T03:42:59.266Z,5.90
2019-03-23T03:45:29.492Z,6.13
2019-03-23T03:47:58.163Z,5.83
2019-03-23T03:50:26.877Z,6.27
2019-03-23T03:52:55.506Z,6.33
2019-03-23T03:55:24.210Z,6.00
2019-03-23T03:57:52.861Z,5.97
2019-03-23T04:00:21.398Z,5.90
2019-03-23T04:02:49.860Z,4.93
2019-03-23T04:05:18.677Z,5.30
2019-03-23T04:07:47.265Z,5.27
2019-03-23T04:10:15.837Z,5.20
2019-03-23T04:12:44.598Z,4.70
2019-03-23T04:15:13.161Z,4.60
2019-03-23T04:17:41.733Z,5.53
2019-03-23T04:20:11.173Z,4.43
2019-03-23T04:22:40.028Z,5.03
2019-03-23T04:25:10.309Z,4.90
2019-03-23T04:27:39.067Z,4.73
2019-03-23T04:30:09.937Z,5.10
2019-03-23T04:32:38.679Z,5.13
2019-03-23T04:35:08.086Z,4.40
2019-03-23T04:37:36.789Z,4.80
2019-03-23T04:40:07.962Z,4.80
2019-03-23T04:42:36.663Z,5.23
2019-03-23T04:45:07.736Z,6.10
2019-03-23T04:47:36.443Z,5.00
2019-03-23T04:50:12.137Z,5.33
2019-03-23T04:52:40.982Z,5.10
2019-03-23T04:55:13.935Z,5.07
2019-03-23T04:57:42.563Z,5.93
2019-03-23T05:00:19.238Z,5.67
2019-03-23T05:02:47.859Z,5.30
2019-03-23T05:05:16.768Z,4.87
2019-03-23T05:07:45.897Z,4.93
2019-03-23T05:10:15.084Z,4.50
2019-03-23T05:12:43.557Z,5.40
2019-03-23T05:15:13.083Z,5.93
2019-03-23T05:17:41.868Z,5.43
2019-03-23T05:20:12.698Z,5.37
2019-03-23T05:22:41.342Z,5.07
2019-03-23T05:25:12.975Z,5.40
2019-03-23T05:27:41.526Z,5.63
2019-03-23T05:30:10.436Z,5.47
2019-03-23T05:32:39.013Z,6.07
2019-03-23T05:35:07.716Z,5.40
2019-03-23T05:37:36.427Z,5.00
2019-03-23T05:40:07.340Z,6.37
2019-03-23T05:42:36.230Z,5.47
2019-03-23T05:45:06.848Z,5.70
2019-03-23T05:47:35.390Z,5.60
2019-03-23T05:50:06.072Z,6.00
2019-03-23T05:52:34.750Z,6.10
2019-03-23T05:55:03.634Z,5.23
2019-03-23T05:57:32.251Z,5.50
2019-03-23T06:00:00.914Z,6.00
2019-03-23T06:02:29.571Z,5.90
2019-03-23T06:04:58.333Z,5.80
2019-03-23T06:07:26.973Z,5.53
2019-03-23T06:09:55.613Z,5.90
2019-03-23T06:12:24.085Z,6.07
2019-03-23T06:14:52.784Z,6.90
2019-03-23T06:17:21.494Z,6.40
2019-03-23T06:19:50.144Z,6.13
2019-03-23T06:22:18.774Z,5.67
2019-03-23T06:24:47.296Z,5.83
2019-03-23T06:27:15.747Z,5.80
2019-03-23T06:29:44.384Z,6.47
2019-03-23T06:32:12.921Z,5.97
2019-03-23T06:34:41.664Z,6.00
2019-03-23T06:37:10.149Z,5.67
2019-03-23T06:39:38.986Z,6.17
2019-03-23T06:42:07.520Z,5.80
2019-03-23T06:44:36.159Z,6.30
2019-03-23T06:47:04.948Z,6.23
2019-03-23T06:49:33.545Z,6.37
2019-03-23T06:52:02.026Z,6.20
2019-03-23T06:54:30.694Z,7.83
2019-03-23T06:56:59.275Z,6.93
2019-03-23T06:59:27.970Z,6.67
2019-03-23T07:01:56.594Z,6.90
2019-03-23T07:04:26.742Z,6.27
2019-03-23T07:06:55.560Z,5.93
2019-03-23T07:09:24.403Z,6.30
2019-03-23T07:11:52.982Z,6.40
2019-03-23T07:14:21.636Z,6.80
2019-03-23T07:16:50.305Z,6.47
2019-03-23T07:19:21.489Z,6.80
2019-03-23T07:21:50.241Z,6.63
2019-03-23T07:24:18.914Z,6.43
2019-03-23T07:26:47.583Z,6.40
2019-03-23T07:29:16.246Z,6.00
2019-03-23T07:31:44.834Z,6.87
2019-03-23T07:34:13.608Z,7.23
2019-03-23T07:36:42.254Z,6.70
2019-03-23T07:39:11.314Z,7.07
2019-03-23T07:41:39.884Z,6.40
2019-03-23T07:44:08.653Z,7.20
2019-03-23T07:46:37.303Z,7.13
2019-03-23T07:49:06.671Z,6.23
2019-03-23T07:51:35.406Z,6.70
2019-03-23T07:54:04.006Z,6.23
2019-03-23T07:56:32.585Z,6.53
2019-03-23T07:59:01.186Z,7.00
2019-03-23T08:01:30.148Z,8.43
2019-03-23T08:03:58.858Z,7.90
2019-03-23T08:06:27.630Z,8.67
2019-03-23T08:08:56.227Z,7.97
2019-03-23T08:11:25.026Z,8.73
2019-03-23T08:13:53.753Z,8.30
2019-03-23T08:16:22.324Z,8.43
2019-03-23T08:18:51.403Z,8.17
2019-03-23T08:21:19.946Z,7.50
2019-03-23T08:23:48.383Z,8.90
2019-03-23T08:26:17.205Z,8.23
2019-03-23T08:28:46.134Z,8.27
2019-03-23T08:31:14.964Z,9.00
2019-03-23T08:33:43.457Z,8.97
2019-03-23T08:36:12.550Z,9.27
2019-03-23T08:38:41.573Z,8.23
2019-03-23T08:41:10.189Z,9.03
2019-03-23T08:43:39.143Z,8.63
2019-03-23T08:46:07.842Z,9.87
2019-03-23T08:48:36.721Z,9.80
2019-03-23T08:51:05.786Z,9.60
2019-03-23T08:53:34.994Z,9.50
2019-03-23T08:56:04.015Z,9.77
2019-03-23T08:58:31.590Z,8.83
2019-03-23T09:01:00.153Z,9.60
2019-03-23T09:03:29.341Z,9.73
2019-03-23T09:05:57.855Z,10.70
2019-03-23T09:08:26.970Z,8.97
2019-03-23T09:10:56.017Z,8.90
2019-03-23T09:13:25.255Z,10.80
2019-03-23T09:15:54.178Z,9.30
2019-03-23T09:18:22.853Z,8.70
2019-03-23T09:20:51.818Z,10.37
2019-03-23T09:23:20.425Z,9.27
2019-03-23T09:25:49.308Z,10.00
2019-03-23T09:28:17.913Z,9.77
2019-03-23T09:30:46.473Z,8.47
2019-03-23T09:33:15.182Z,11.20
2019-03-23T09:35:43.883Z,13.87
2019-03-23T09:38:12.507Z,13.87
2019-03-23T09:40:41.047Z,15.87
2019-03-23T09:43:10.036Z,15.77
2019-03-23T09:45:38.899Z,14.20
2019-03-23T09:48:07.760Z,13.47
2019-03-23T09:50:36.419Z,14.03
2019-03-23T09:53:05.177Z,12.93
2019-03-23T09:55:34.064Z,13.23
2019-03-23T09:58:02.799Z,11.83
2019-03-23T10:00:32.119Z,11.00
2019-03-23T10:03:00.888Z,11.77
2019-03-23T10:05:29.509Z,10.47
2019-03-23T10:07:58.485Z,10.60
2019-03-23T10:10:27.167Z,12.83
2019-03-23T10:12:56.137Z,13.03
2019-03-23T10:15:24.623Z,12.83
2019-03-23T10:17:53.604Z,11.93
2019-03-23T10:20:23.434Z,13.20
2019-03-23T10:22:52.687Z,11.33
2019-03-23T10:25:21.563Z,13.70
2019-03-23T10:27:50.330Z,13.60
2019-03-23T10:30:18.876Z,12.13
2019-03-23T10:32:47.537Z,13.40
2019-03-23T10:35:16.446Z,13.90
2019-03-23T10:37:45.502Z,12.90
2019-03-23T10:40:14.431Z,13.57
2019-03-23T10:42:43.561Z,14.43
2019-03-23T10:45:13.608Z,16.23
2019-03-23T10:47:42.354Z,15.43
2019-03-23T10:50:12.091Z,15.57
2019-03-23T10:52:40.808Z,15.17
2019-03-23T10:55:09.446Z,16.63
2019-03-23T10:57:38.270Z,18.17
2019-03-23T11:00:10.178Z,14.57
2019-03-23T11:02:39.204Z,16.43
2019-03-23T11:05:09.218Z,16.27
2019-03-23T11:07:38.177Z,17.90
2019-03-23T11:10:09.378Z,17.73
2019-03-23T11:12:37.958Z,13.90
2019-03-23T11:15:08.017Z,15.90
2019-03-23T11:17:36.669Z,15.83
2019-03-23T11:20:10.800Z,16.73
2019-03-23T11:22:39.544Z,15.13
2019-03-23T11:25:08.739Z,16.77
2019-03-23T11:27:37.250Z,15.10
2019-03-23T11:30:08.072Z,13.53
2019-03-23T11:32:36.931Z,15.57
2019-03-23T11:35:08.148Z,17.63
2019-03-23T11:37:37.479Z,16.77
2019-03-23T11:40:09.056Z,16.53
2019-03-23T11:42:37.916Z,17.77
2019-03-23T11:45:08.062Z,16.83
2019-03-23T11:47:36.945Z,18.50
2019-03-23T11:50:06.900Z,18.40
2019-03-23T11:52:36.135Z,18.03
2019-03-23T11:55:06.838Z,16.27
2019-03-23T11:57:35.746Z,18.30
2019-03-23T12:00:07.502Z,18.90
2019-03-23T12:02:36.407Z,17.97
2019-03-23T12:05:07.356Z,19.07
2019-03-23T12:07:36.457Z,17.87
2019-03-23T12:10:10.425Z,20.33
2019-03-23T12:12:39.084Z,17.20
2019-03-23T12:15:10.114Z,16.23
2019-03-23T12:17:38.775Z,16.87
2019-03-23T12:20:08.775Z,16.47
2019-03-23T12:22:37.713Z,15.10
2019-03-23T12:25:07.095Z,19.27
2019-03-23T12:27:35.701Z,16.53
2019-03-23T12:30:07.571Z,16.83
2019-03-23T12:32:36.371Z,15.37
2019-03-23T12:35:07.980Z,15.00
2019-03-23T12:37:36.904Z,15.97
2019-03-23T12:40:07.639Z,18.20
2019-03-23T12:42:36.539Z,16.37
2019-03-23T12:45:06.590Z,17.47
2019-03-23T12:47:35.495Z,16.57
2019-03-23T12:50:06.804Z,17.80
2019-03-23T12:52:35.840Z,16.50
2019-03-23T12:55:06.210Z,16.43
2019-03-23T12:57:34.827Z,16.43
2019-03-23T13:00:05.081Z,15.87
2019-03-23T13:02:33.847Z,18.23
2019-03-23T13:05:04.131Z,16.17
2019-03-23T13:07:32.954Z,16.80
2019-03-23T13:10:01.686Z,15.07
2019-03-23T13:12:30.362Z,16.73
2019-03-23T13:14:58.988Z,15.37
2019-03-23T13:17:27.445Z,17.73
2019-03-23T13:19:55.993Z,15.17
2019-03-23T13:22:24.726Z,16.23
2019-03-23T13:24:53.587Z,14.60
2019-03-23T13:27:22.469Z,14.93
2019-03-23T13:29:50.943Z,17.03
2019-03-23T13:32:19.853Z,17.63
2019-03-23T13:34:48.393Z,16.93
2019-03-23T13:37:16.979Z,17.00
2019-03-23T13:39:45.922Z,16.43
2019-03-23T13:42:14.703Z,19.83
2019-03-23T13:44:43.451Z,17.93
2019-03-23T13:47:12.252Z,17.70
2019-03-23T13:49:40.863Z,17.33
2019-03-23T13:52:09.460Z,16.47
2019-03-23T13:54:38.339Z,17.10
2019-03-23T13:57:06.883Z,17.43
2019-03-23T13:59:35.615Z,14.20
2019-03-23T14:02:04.733Z,15.80
2019-03-23T14:04:33.483Z,16.70
2019-03-23T14:07:02.434Z,16.93
2019-03-23T14:09:31.610Z,16.13
2019-03-23T14:12:00.243Z,16.67
2019-03-23T14:14:29.303Z,19.50
2019-03-23T14:16:57.986Z,16.83
2019-03-23T14:19:26.761Z,18.70
2019-03-23T14:21:55.516Z,17.90
2019-03-23T14:24:24.449Z,15.77
2019-03-23T14:26:53.009Z,14.53
2019-03-23T14:29:21.754Z,15.40
2019-03-23T14:31:50.444Z,17.00
2019-03-23T14:34:38.269Z,15.97
2019-03-23T14:37:06.850Z,15.13
2019-03-23T14:39:37.029Z,15.27
2019-03-23T14:42:05.790Z,15.57
2019-03-23T14:44:34.387Z,14.10
2019-03-23T14:47:03.072Z,14.27
2019-03-23T14:49:31.736Z,14.47
2019-03-23T14:52:00.666Z,16.23
2019-03-23T14:54:29.283Z,17.23
2019-03-23T14:57:01.735Z,15.17
2019-03-23T14:59:30.542Z,16.13
2019-03-23T15:01:59.266Z,17.73
2019-03-23T15:04:27.853Z,13.87
2019-03-23T15:06:56.590Z,14.50
2019-03-23T15:09:25.305Z,16.47
2019-03-23T15:11:54.247Z,14.90
2019-03-23T15:14:22.968Z,13.00
2019-03-23T15:16:51.655Z,12.50
2019-03-23T15:19:20.434Z,13.90
2019-03-23T15:21:49.384Z,13.73
2019-03-23T15:24:17.946Z,10.57
2019-03-23T15:26:46.808Z,10.87
2019-03-23T15:29:15.523Z,12.57
2019-03-23T15:31:44.080Z,12.77
2019-03-23T15:34:13.060Z,14.33
2019-03-23T15:36:42.094Z,11.37
2019-03-23T15:39:10.996Z,10.77
2019-03-23T15:41:40.254Z,13.87
2019-03-23T15:44:08.868Z,13.50
2019-03-23T15:46:37.936Z,14.50
2019-03-23T15:49:06.684Z,14.43
2019-03-23T15:51:35.390Z,12.43
2019-03-23T15:54:04.268Z,12.73
2019-03-23T15:56:33.150Z,13.70
2019-03-23T15:59:22.349Z,11.70
2019-03-23T16:01:50.843Z,11.63
2019-03-23T16:04:19.677Z,10.00
2019-03-23T16:06:48.299Z,15.43
2019-03-23T16:09:16.805Z,15.03
2019-03-23T16:11:45.662Z,16.60
2019-03-23T16:14:14.383Z,14.53
2019-03-23T16:16:43.016Z,11.60
2019-03-23T16:19:11.665Z,13.90
2019-03-23T16:21:40.518Z,13.57
2019-03-23T16:24:09.027Z,14.60
2019-03-23T16:26:38.075Z,13.10
2019-03-23T16:29:07.127Z,14.00
2019-03-23T16:31:36.097Z,13.63
2019-03-23T16:34:05.163Z,13.73
2019-03-23T16:36:33.899Z,13.63
2019-03-23T16:39:02.891Z,16.03
2019-03-23T16:41:32.255Z,14.63
2019-03-23T16:44:00.828Z,13.77
2019-03-23T16:46:29.653Z,13.57
2019-03-23T16:49:00.286Z,12.60
2019-03-23T16:51:29.078Z,12.97
2019-03-23T16:53:57.970Z,15.73
2019-03-23T16:56:26.838Z,13.47
2019-03-23T16:58:55.797Z,14.23
2019-03-23T17:01:36.487Z,13.23
2019-03-23T17:04:05.213Z,12.27
2019-03-23T17:06:45.844Z,11.53
2019-03-23T17:09:06.329Z,13.43
2019-03-23T17:11:35.153Z,32.60
2019-03-23T17:14:03.940Z,17.37
2019-03-23T17:16:32.774Z,13.60
2019-03-23T17:19:01.631Z,13.20
2019-03-23T17:21:30.210Z,13.53
2019-03-23T17:23:59.197Z,12.37
2019-03-23T17:26:27.981Z,12.77
2019-03-23T17:28:56.924Z,12.63
2019-03-23T17:31:25.646Z,12.43
2019-03-23T17:33:54.243Z,12.87
2019-03-23T17:36:22.805Z,14.40
2019-03-23T17:38:51.477Z,12.67
2019-03-23T17:41:20.097Z,12.87
2019-03-23T17:43:49.025Z,12.57
2019-03-23T17:46:17.735Z,12.93
2019-03-23T17:48:46.781Z,12.47
2019-03-23T17:51:15.616Z,11.53
2019-03-23T17:53:44.499Z,12.80
2019-03-23T17:56:13.365Z,12.47
2019-03-23T17:58:42.031Z,13.07
2019-03-23T18:01:19.263Z,12.43
2019-03-23T18:03:44.457Z,13.70
2019-03-23T18:06:13.070Z,12.73
2019-03-23T18:08:41.876Z,14.33
2019-03-23T18:11:10.535Z,12.83
2019-03-23T18:13:39.320Z,11.87
2019-03-23T18:16:08.224Z,12.73
2019-03-23T18:18:37.118Z,11.93
2019-03-23T18:21:05.844Z,12.67
2019-03-23T18:23:34.899Z,14.10
2019-03-23T18:26:03.796Z,12.77
2019-03-23T18:28:32.647Z,12.30
2019-03-23T18:31:01.339Z,13.77
2019-03-23T18:33:30.031Z,14.33
2019-03-23T18:35:58.751Z,13.90
2019-03-23T18:38:27.364Z,15.40
2019-03-23T18:40:55.971Z,14.37
2019-03-23T18:43:27.688Z,15.27
2019-03-23T18:45:55.450Z,15.83
2019-03-23T18:48:24.324Z,14.53
2019-03-23T18:50:53.164Z,13.57
2019-03-23T18:53:23.942Z,15.77
2019-03-23T18:55:52.368Z,17.07
2019-03-23T18:58:20.867Z,17.73
2019-03-23T19:00:49.716Z,18.23
2019-03-23T19:03:18.399Z,21.70
2019-03-23T19:05:47.063Z,24.43
2019-03-23T19:08:15.684Z,24.70
2019-03-23T19:10:44.291Z,25.90
2019-03-23T19:13:12.859Z,28.10
2019-03-23T19:15:41.634Z,30.23
2019-03-23T19:18:10.439Z,34.70
2019-03-23T19:20:39.066Z,32.43
2019-03-23T19:23:07.938Z,33.77
2019-03-23T19:25:36.572Z,32.87
2019-03-23T19:28:06.075Z,33.97
2019-03-23T19:30:35.053Z,34.90
2019-03-23T19:33:06.157Z,35.00
2019-03-23T19:35:34.591Z,35.13
2019-03-23T19:38:03.376Z,34.37
2019-03-23T19:40:31.925Z,38.37
2019-03-23T19:43:00.671Z,39.50
2019-03-23T19:45:29.342Z,33.93
2019-03-23T19:47:58.048Z,36.40
2019-03-23T19:50:26.827Z,35.17
2019-03-23T19:52:55.591Z,34.70
2019-03-23T19:55:24.184Z,32.37
2019-03-23T19:57:54.766Z,36.27
2019-03-23T20:00:23.357Z,35.70
2019-03-23T20:02:52.136Z,35.17
2019-03-23T20:05:21.024Z,35.20
2019-03-23T20:07:49.695Z,34.27
2019-03-23T20:10:18.758Z,30.53
2019-03-23T20:12:47.435Z,33.80
2019-03-23T20:15:16.554Z,35.93
2019-03-23T20:17:45.558Z,41.23
2019-03-23T20:20:15.924Z,36.70
2019-03-23T20:22:44.612Z,36.53
2019-03-23T20:25:13.748Z,39.13
2019-03-23T20:27:42.444Z,35.10
2019-03-23T20:30:13.331Z,40.90
2019-03-23T20:32:42.093Z,38.37
2019-03-23T20:35:11.071Z,37.90
2019-03-23T20:37:40.127Z,40.33
2019-03-23T20:40:10.683Z,37.07
2019-03-23T20:42:39.458Z,36.47
2019-03-23T20:45:09.718Z,36.30
2019-03-23T20:47:40.621Z,36.10
2019-03-23T20:50:10.355Z,38.30
2019-03-23T20:52:40.139Z,35.03
2019-03-23T20:55:14.717Z,36.40
2019-03-23T20:57:43.387Z,34.73
2019-03-23T21:00:12.294Z,36.23
2019-03-23T21:02:41.040Z,33.97
2019-03-23T21:05:09.817Z,36.90
2019-03-23T21:07:38.596Z,36.50
2019-03-23T21:10:07.735Z,35.77
2019-03-23T21:12:36.356Z,34.87
2019-03-23T21:15:06.821Z,34.13
2019-03-23T21:17:35.759Z,36.17
2019-03-23T21:20:06.259Z,38.20
2019-03-23T21:22:34.980Z,38.97
2019-03-23T21:25:04.768Z,34.63
2019-03-23T21:27:33.404Z,40.07
2019-03-23T21:30:01.937Z,43.17
2019-03-23T21:32:30.496Z,42.60
2019-03-23T21:34:59.101Z,41.03
2019-03-23T21:37:27.556Z,40.77
2019-03-23T21:39:56.356Z,41.20
2019-03-23T21:42:25.160Z,47.10
2019-03-23T21:44:53.822Z,42.87
2019-03-23T21:47:22.574Z,42.13
2019-03-23T21:49:51.133Z,42.20
2019-03-23T21:52:19.656Z,42.33
2019-03-23T21:54:48.176Z,41.87
2019-03-23T21:57:16.816Z,43.77
2019-03-23T21:59:45.309Z,41.07
2019-03-23T22:02:13.922Z,43.97
2019-03-23T22:04:42.611Z,43.00
2019-03-23T22:07:11.283Z,43.83
2019-03-23T22:09:40.159Z,42.97
2019-03-23T22:12:08.679Z,43.57
2019-03-23T22:14:41.590Z,42.30
2019-03-23T22:17:07.816Z,44.33
2019-03-23T22:19:36.376Z,41.60
2019-03-23T22:22:04.929Z,36.87
2019-03-23T22:24:33.557Z,35.67
2019-03-23T22:27:02.139Z,33.57
2019-03-23T22:29:30.817Z,37.20
2019-03-23T22:31:59.281Z,37.50
2019-03-23T22:34:27.885Z,44.67
2019-03-23T22:36:56.343Z,37.90
2019-03-23T22:39:24.938Z,41.33
2019-03-23T22:41:53.768Z,37.03
2019-03-23T22:44:22.312Z,40.43
2019-03-23T22:46:50.901Z,38.10
2019-03-23T22:49:19.480Z,35.50
2019-03-23T22:51:48.024Z,33.83
2019-03-23T22:54:16.732Z,32.37
2019-03-23T22:56:45.401Z,36.47
2019-03-23T22:59:15.445Z,35.37
2019-03-23T23:01:44.279Z,34.50
2019-03-23T23:04:13.119Z,37.93
2019-03-23T23:06:41.828Z,33.90
2019-03-23T23:09:10.763Z,32.20
2019-03-23T23:11:39.321Z,33.67
2019-03-23T23:14:07.969Z,33.37
2019-03-23T23:16:36.531Z,34.17
2019-03-23T23:19:05.451Z,37.00
2019-03-23T23:21:34.215Z,35.60
2019-03-23T23:24:02.698Z,30.80
2019-03-23T23:26:31.344Z,35.47
2019-03-23T23:29:00.179Z,34.13
2019-03-23T23:31:28.745Z,35.17
2019-03-23T23:33:57.282Z,34.87
2019-03-23T23:36:25.820Z,33.83
2019-03-23T23:38:54.369Z,33.50
2019-03-23T23:41:23.328Z,32.50
2019-03-23T23:43:51.959Z,32.37
2019-03-23T23:46:20.679Z,29.50
2019-03-23T23:48:51.424Z,31.87
2019-03-23T23:51:19.502Z,32.17
2019-03-23T23:53:48.119Z,33.53
2019-03-23T23:56:19.796Z,28.63
2019-03-23T23:58:48.740Z,29.90
